Time;durP1;ratioP1;P1;durP2;ratioP2;P2;SDS_P1;SDS_P2;PMS_P1;PMS_P2;Temp;Humidity;BMP_temperature;BMP_pressure;BME280_temperature;BME280_humidity;BME280_pressure;Samples;Min_cycle;Max_cycle;Signal;HPM_P1;HPM_P2
2021/08/01 00:01:06;;;;;;;2.43;2.33;;;;;;;16.72;76.61;99681.19;5054248;28;20211;-77
2021/08/01 00:03:33;;;;;;;2.60;2.40;;;;;;;16.69;76.68;99679.59;5053425;28;20235;-77
2021/08/01 00:06:00;;;;;;;2.50;2.30;;;;;;;16.61;77.06;99677.38;5054487;28;20236;-76
2021/08/01 00:08:26;;;;;;;2.37;2.17;;;;;;;16.60;76.86;99677.47;5054238;28;20549;-77
2021/08/01 00:10:56;;;;;;;2.67;2.47;;;;;;;16.60;76.92;99680.09;5054270;28;20626;-77
2021/08/01 00:13:23;;;;;;;2.90;2.70;;;;;;;16.55;77.30;99685.63;5053063;28;20230;-76
2021/08/01 00:15:50;;;;;;;4.97;3.07;;;;;;;16.53;77.51;99660.28;5054192;28;20207;-76
2021/08/01 00:18:17;;;;;;;2.77;2.50;;;;;;;16.47;77.85;99643.91;5054248;28;20668;-76
2021/08/01 00:20:44;;;;;;;3.30;2.60;;;;;;;16.50;77.43;99653.41;5054126;28;20207;-77
2021/08/01 00:23:11;;;;;;;3.17;2.87;;;;;;;16.45;77.46;99663.34;5053373;28;20227;-77
2021/08/01 00:25:37;;;;;;;2.30;2.20;;;;;;;16.44;77.54;99648.50;5054031;28;20292;-77
2021/08/01 00:28:04;;;;;;;3.27;2.97;;;;;;;16.41;77.81;99656.56;5053657;28;20219;-77
2021/08/01 00:30:31;;;;;;;3.07;2.87;;;;;;;16.40;78.05;99645.19;5053772;28;20259;-77
2021/08/01 00:32:59;;;;;;;2.73;2.53;;;;;;;16.37;78.23;99640.09;5053520;28;20227;-77
2021/08/01 00:35:26;;;;;;;3.93;3.63;;;;;;;16.28;78.46;99630.06;5053787;28;20206;-77
2021/08/01 00:37:52;;;;;;;3.67;3.47;;;;;;;16.29;78.65;99631.75;5053944;28;20205;-77
2021/08/01 00:40:20;;;;;;;3.43;3.10;;;;;;;16.32;78.46;99617.59;5053427;28;20280;-77
2021/08/01 00:42:46;;;;;;;3.30;3.10;;;;;;;16.32;78.30;99623.69;5045936;28;20254;-77
2021/08/01 00:45:14;;;;;;;2.90;2.67;;;;;;;16.33;78.40;99619.25;5053494;28;20240;-76
2021/08/01 00:47:41;;;;;;;3.30;3.10;;;;;;;16.26;78.13;99624.03;5052663;28;20207;-77
2021/08/01 00:50:11;;;;;;;3.00;2.80;;;;;;;16.24;78.90;99610.94;5053548;28;20630;-77
2021/08/01 00:52:37;;;;;;;2.87;2.67;;;;;;;16.28;78.35;99622.16;5052592;28;20225;-77
2021/08/01 00:55:05;;;;;;;3.73;3.53;;;;;;;16.15;79.11;99606.19;5052509;28;20219;-77
2021/08/01 00:57:31;;;;;;;3.13;2.93;;;;;;;16.13;79.13;99605.41;5041363;28;20740;-76
2021/08/01 00:59:58;;;;;;;3.23;3.03;;;;;;;16.17;78.77;99609.56;5043448;28;20260;-77
2021/08/01 01:02:30;;;;;;;3.50;3.20;;;;;;;16.12;79.25;99595.84;5042103;28;20769;-77
2021/08/01 01:05:06;;;;;;;3.80;3.60;;;;;;;16.03;79.40;99594.53;5041292;28;20204;-76
2021/08/01 01:07:39;;;;;;;3.97;3.57;;;;;;;15.83;80.01;99582.47;5044465;28;20241;-77
2021/08/01 01:10:09;;;;;;;4.47;4.17;;;;;;;15.47;81.29;99527.41;5043753;28;20203;-76
2021/08/01 01:12:40;;;;;;;4.20;3.87;;;;;;;15.41;81.61;99510.19;5042958;28;20218;-77
2021/08/01 01:15:11;;;;;;;4.43;4.13;;;;;;;15.29;82.11;99501.16;5044934;28;20233;-77
2021/08/01 01:17:40;;;;;;;5.67;3.67;;;;;;;15.19;82.90;99468.41;5041672;28;20260;-77
2021/08/01 01:20:49;;;;;;;4.10;3.80;;;;;;;15.37;82.14;99474.47;5041664;28;20267;-77
2021/08/01 01:23:36;;;;;;;3.30;2.97;;;;;;;15.52;81.52;99501.72;5042628;28;20221;-77
2021/08/01 01:26:04;;;;;;;3.07;2.87;;;;;;;15.60;81.25;99524.97;5040562;28;20255;-77
2021/08/01 01:28:37;;;;;;;3.23;2.83;;;;;;;15.67;80.92;99521.06;5032374;28;20206;-77
2021/08/01 01:31:13;;;;;;;3.50;3.30;;;;;;;15.67;80.68;99537.69;5032082;28;20552;-77
2021/08/01 01:33:51;;;;;;;4.37;4.07;;;;;;;15.53;81.24;99529.72;5032100;28;20210;-77
2021/08/01 01:36:26;;;;;;;3.57;3.27;;;;;;;15.40;81.83;99494.47;5032842;28;20200;-77
2021/08/01 01:38:54;;;;;;;3.47;3.27;;;;;;;15.45;81.95;99511.72;5032923;28;20232;-77
2021/08/01 01:41:22;;;;;;;3.47;3.17;;;;;;;15.38;82.22;99494.59;5031579;28;20273;-77
2021/08/01 01:43:50;;;;;;;3.83;3.53;;;;;;;15.29;82.63;99476.66;5050503;28;20206;-77
2021/08/01 01:46:17;;;;;;;3.80;3.50;;;;;;;15.29;82.82;99461.72;5052298;28;20225;-77
2021/08/01 01:48:44;;;;;;;4.13;3.83;;;;;;;15.33;82.38;99470.31;5052632;28;20231;-77
2021/08/01 01:51:12;;;;;;;5.20;4.80;;;;;;;15.08;83.97;99424.31;5052065;28;20261;-76
2021/08/01 01:53:40;;;;;;;5.03;4.50;;;;;;;14.88;84.92;99399.13;5051490;28;20217;-77
2021/08/01 01:56:10;;;;;;;4.67;4.37;;;;;;;14.95;84.88;99398.78;5050994;28;20271;-77
2021/08/01 01:58:37;;;;;;;4.83;4.43;;;;;;;15.00;84.42;99412.50;5051925;28;20255;-77
2021/08/01 02:01:04;;;;;;;4.23;3.93;;;;;;;15.15;83.73;99427.47;5051914;28;20263;-77
2021/08/01 02:03:30;;;;;;;4.20;3.80;;;;;;;15.23;82.96;99448.06;5051099;28;20225;-77
2021/08/01 02:05:57;;;;;;;4.07;3.73;;;;;;;15.26;82.66;99479.44;5051686;28;20271;-77
2021/08/01 02:08:23;;;;;;;4.50;4.10;;;;;;;15.32;82.53;99489.66;5052074;28;20282;-77
2021/08/01 02:10:57;;;;;;;4.87;4.47;;;;;;;15.35;82.29;99486.84;5050946;28;20771;-77
2021/08/01 02:13:28;;;;;;;4.47;4.07;;;;;;;15.33;83.12;99480.81;5046128;28;20284;-77
2021/08/01 02:15:57;;;;;;;4.00;3.80;;;;;;;15.33;82.71;99477.34;5050765;28;20660;-77
2021/08/01 02:18:28;;;;;;;4.03;3.83;;;;;;;15.37;82.64;99469.22;5051649;28;20605;-76
2021/08/01 02:20:56;;;;;;;4.20;3.90;;;;;;;15.39;81.96;99491.00;5052075;28;20194;-77
2021/08/01 02:23:25;;;;;;;4.33;4.03;;;;;;;15.42;81.55;99504.00;5051075;28;20221;-77
2021/08/01 02:25:54;;;;;;;4.60;4.03;;;;;;;15.42;82.25;99482.09;5051342;28;20627;-77
2021/08/01 02:28:22;;;;;;;3.80;3.60;;;;;;;15.42;81.74;99496.13;5051594;28;20266;-76
2021/08/01 02:30:50;;;;;;;3.70;3.50;;;;;;;15.42;81.38;99500.50;5051663;28;20209;-77
2021/08/01 02:33:18;;;;;;;3.83;3.53;;;;;;;15.40;81.48;99497.97;5050783;28;20226;-77
2021/08/01 02:35:45;;;;;;;3.80;3.60;;;;;;;15.36;81.63;99501.72;5051957;28;20253;-76
2021/08/01 02:38:14;;;;;;;3.13;2.93;;;;;;;15.35;81.65;99505.25;5051756;28;20618;-76
2021/08/01 02:40:43;;;;;;;3.40;3.20;;;;;;;15.32;81.67;99489.66;5051517;28;20217;-76
2021/08/01 02:43:13;;;;;;;3.97;3.67;;;;;;;15.35;82.00;99502.63;5043794;28;20218;-77
2021/08/01 02:45:41;;;;;;;3.70;3.50;;;;;;;15.33;82.32;99488.72;5050904;28;20217;-77
2021/08/01 02:48:10;;;;;;;4.03;3.83;;;;;;;15.33;82.06;99507.13;5051779;28;20205;-77
2021/08/01 02:50:38;;;;;;;4.33;4.03;;;;;;;15.33;82.31;99493.13;5051602;28;20206;-77
2021/08/01 02:53:09;;;;;;;5.23;4.20;;;;;;;15.31;82.44;99500.25;5050596;28;20272;-77
2021/08/01 02:55:37;;;;;;;3.80;3.50;;;;;;;15.29;82.41;99502.97;5050861;28;20598;-77
2021/08/01 02:58:07;;;;;;;3.93;3.57;;;;;;;15.27;82.22;99516.19;5051304;28;20202;-76
2021/08/01 03:00:36;;;;;;;5.17;3.67;;;;;;;15.28;81.85;99520.53;5051497;28;20264;-77
2021/08/01 03:03:05;;;;;;;3.97;3.67;;;;;;;15.27;82.10;99520.59;5050849;28;20226;-76
2021/08/01 03:05:32;;;;;;;4.10;3.80;;;;;;;15.23;82.50;99505.91;5051482;28;20312;-76
2021/08/01 03:07:59;;;;;;;4.00;3.70;;;;;;;15.24;82.26;99519.00;5051203;28;20278;-77
2021/08/01 03:10:26;;;;;;;3.77;3.57;;;;;;;15.15;82.78;99489.72;5051237;28;20265;-77
2021/08/01 03:12:52;;;;;;;4.30;4.00;;;;;;;15.17;83.24;99482.59;5043707;28;20283;-77
2021/08/01 03:15:19;;;;;;;4.40;4.03;;;;;;;15.19;82.64;99507.00;5051237;28;20203;-77
2021/08/01 03:17:47;;;;;;;3.80;3.50;;;;;;;15.16;82.70;99508.00;5051145;28;20207;-76
2021/08/01 03:20:13;;;;;;;3.90;3.63;;;;;;;15.16;82.46;99533.44;5051068;28;20556;-77
2021/08/01 03:22:40;;;;;;;7.37;3.90;;;;;;;15.10;82.74;99524.09;5050484;28;20587;-77
2021/08/01 03:25:07;;;;;;;4.00;3.80;;;;;;;15.14;82.40;99538.78;5051368;28;20233;-77
2021/08/01 03:27:33;;;;;;;4.60;4.20;;;;;;;15.14;82.67;99538.78;5053872;28;20209;-76
2021/08/01 03:30:00;;;;;;;8.40;4.03;;;;;;;15.14;82.61;99548.44;5055027;28;20205;-77
2021/08/01 03:32:27;;;;;;;4.40;3.67;;;;;;;15.09;82.76;99540.81;5054064;28;20229;-76
2021/08/01 03:34:54;;;;;;;3.97;3.73;;;;;;;15.04;83.09;99540.19;5055280;28;20205;-77
2021/08/01 03:37:25;;;;;;;4.10;3.90;;;;;;;15.08;82.95;99542.59;5054718;28;20210;-77
2021/08/01 03:39:52;;;;;;;4.43;4.10;;;;;;;15.15;83.35;99529.13;5054812;28;20280;-77
2021/08/01 03:42:18;;;;;;;4.63;4.33;;;;;;;15.09;84.04;99507.50;5046962;28;20235;-77
2021/08/01 03:44:44;;;;;;;4.63;4.03;;;;;;;15.19;83.31;99520.16;5054703;28;20271;-77
2021/08/01 03:47:11;;;;;;;4.57;4.23;;;;;;;15.21;83.50;99518.28;5054733;28;20516;-76
2021/08/01 03:49:38;;;;;;;3.80;3.50;;;;;;;15.24;83.68;99524.25;5054788;28;20210;-76
2021/08/01 03:52:07;;;;;;;4.60;4.20;;;;;;;15.27;83.92;99512.72;5054093;28;20236;-75
2021/08/01 03:54:33;;;;;;;4.67;4.37;;;;;;;15.25;84.41;99504.91;5054648;28;20259;-77
2021/08/01 03:56:59;;;;;;;4.30;3.93;;;;;;;15.30;84.36;99507.28;5053367;28;20210;-77
2021/08/01 03:59:26;;;;;;;4.47;4.17;;;;;;;15.31;84.16;99514.25;5054606;28;20244;-77
2021/08/01 04:01:52;;;;;;;4.60;4.30;;;;;;;15.35;84.09;99517.56;5053409;28;20280;-77
2021/08/01 04:04:19;;;;;;;4.50;4.20;;;;;;;15.37;84.53;99511.28;5054227;28;20205;-77
2021/08/01 04:06:45;;;;;;;5.73;5.23;;;;;;;15.41;84.20;99518.06;5054232;28;20229;-77
2021/08/01 04:09:13;;;;;;;5.20;4.80;;;;;;;15.48;83.61;99531.75;5054278;28;20673;-76
2021/08/01 04:11:43;;;;;;;4.00;3.70;;;;;;;15.52;84.46;99511.38;5047310;28;20279;-76
2021/08/01 04:14:10;;;;;;;3.93;3.63;;;;;;;15.49;84.25;99528.19;5053050;28;20209;-77
2021/08/01 04:16:37;;;;;;;4.10;3.80;;;;;;;15.52;84.19;99522.78;5054141;28;20207;-77
2021/08/01 04:19:07;;;;;;;5.57;5.17;;;;;;;15.55;84.19;99519.13;5054060;28;20237;-76
2021/08/01 04:21:33;;;;;;;6.40;5.90;;;;;;;15.60;83.82;99517.06;5054400;28;20236;-77
2021/08/01 04:24:00;;;;;;;6.17;5.70;;;;;;;15.63;84.14;99517.75;5053648;28;20213;-77
2021/08/01 04:26:28;;;;;;;6.07;5.57;;;;;;;15.61;84.80;99492.47;5053790;28;20227;-76
2021/08/01 04:28:54;;;;;;;6.33;5.73;;;;;;;15.62;84.39;99502.91;5053666;28;20252;-77
2021/08/01 04:31:21;;;;;;;6.73;6.23;;;;;;;15.68;84.46;99499.94;5053685;28;20263;-77
2021/08/01 04:33:47;;;;;;;7.27;6.77;;;;;;;15.80;83.69;99534.44;5053274;28;20255;-77
2021/08/01 04:36:13;;;;;;;6.37;5.87;;;;;;;15.85;83.98;99520.06;5053830;28;20208;-77
2021/08/01 04:38:40;;;;;;;6.33;5.90;;;;;;;15.88;83.88;99519.91;5052610;28;20207;-76
2021/08/01 04:41:06;;;;;;;7.63;6.93;;;;;;;15.99;83.81;99518.47;5050017;28;20273;-77
2021/08/01 04:43:34;;;;;;;7.73;7.03;;;;;;;15.92;84.11;99499.56;5048681;28;20229;-77
2021/08/01 04:46:01;;;;;;;7.50;7.00;;;;;;;16.02;83.82;99515.69;5053323;28;20637;-77
2021/08/01 04:48:27;;;;;;;5.93;5.53;;;;;;;16.06;83.78;99520.66;5053247;28;20618;-77
2021/08/01 04:50:54;;;;;;;8.10;7.50;;;;;;;16.07;83.93;99522.38;5053331;28;20271;-77
2021/08/01 04:53:20;;;;;;;6.63;6.13;;;;;;;16.20;83.58;99540.97;5052432;28;20222;-77
2021/08/01 04:55:47;;;;;;;7.60;6.83;;;;;;;16.32;83.21;99557.84;5051936;28;20237;-77
2021/08/01 04:58:14;;;;;;;7.67;6.97;;;;;;;16.36;83.21;99554.09;5053158;28;20261;-77
2021/08/01 05:00:41;;;;;;;6.87;6.37;;;;;;;16.41;83.40;99540.66;5053086;28;20700;-77
2021/08/01 05:03:08;;;;;;;7.47;6.87;;;;;;;16.48;83.03;99560.44;5052480;28;20227;-77
2021/08/01 05:05:37;;;;;;;9.63;8.47;;;;;;;16.53;83.45;99545.25;5053095;28;20208;-77
2021/08/01 05:08:04;;;;;;;10.17;9.47;;;;;;;16.38;84.64;99502.19;5053081;28;20205;-77
2021/08/01 05:10:31;;;;;;;11.40;10.47;;;;;;;16.27;84.88;99484.38;5052956;28;20208;-77
2021/08/01 05:12:58;;;;;;;10.03;9.30;;;;;;;16.38;84.62;99496.91;5045170;28;20222;-76
2021/08/01 05:15:24;;;;;;;12.03;11.03;;;;;;;16.45;84.18;99513.19;5052997;28;20596;-77
2021/08/01 05:17:52;;;;;;;9.77;9.17;;;;;;;16.47;83.96;99514.81;5053145;28;20211;-77
2021/08/01 05:20:19;;;;;;;11.07;10.27;;;;;;;16.43;83.81;99531.75;5052839;28;20616;-76
2021/08/01 05:22:45;;;;;;;11.40;10.50;;;;;;;16.38;83.73;99522.41;5051715;28;20256;-77
2021/08/01 05:25:12;;;;;;;13.23;12.23;;;;;;;16.24;84.86;99500.34;5052816;28;20206;-76
2021/08/01 05:27:38;;;;;;;13.07;12.07;;;;;;;16.29;84.89;99497.44;5052402;28;20279;-77
2021/08/01 05:30:05;;;;;;;11.50;10.60;;;;;;;16.38;84.68;99493.44;5052856;28;20208;-77
2021/08/01 05:32:33;;;;;;;12.60;11.60;;;;;;;16.33;84.55;99503.38;5051689;28;20229;-77
2021/08/01 05:35:01;;;;;;;11.77;10.90;;;;;;;16.20;84.97;99492.72;5052287;28;20310;-77
2021/08/01 05:37:28;;;;;;;11.67;10.63;;;;;;;16.34;84.34;99502.47;5052619;28;20256;-77
2021/08/01 05:39:54;;;;;;;12.00;11.00;;;;;;;16.38;84.07;99511.88;5052599;28;20229;-77
2021/08/01 05:42:21;;;;;;;12.17;11.17;;;;;;;16.35;84.00;99525.22;5044218;28;20601;-77
2021/08/01 05:44:47;;;;;;;10.87;10.07;;;;;;;16.39;83.76;99524.97;5051914;28;20661;-77
2021/08/01 05:47:13;;;;;;;11.00;10.17;;;;;;;16.49;83.63;99535.81;5052259;28;20231;-77
2021/08/01 05:49:40;;;;;;;11.70;10.90;;;;;;;16.37;83.38;99540.00;5051930;28;20211;-76
2021/08/01 05:52:08;;;;;;;11.20;10.40;;;;;;;16.35;83.57;99544.53;5051672;28;20226;-77
2021/08/01 05:54:34;;;;;;;11.00;10.20;;;;;;;16.24;84.24;99520.56;5052063;28;20207;-77
2021/08/01 05:57:00;;;;;;;11.73;10.77;;;;;;;16.32;83.95;99533.31;5050608;28;20218;-77
2021/08/01 05:59:27;;;;;;;14.00;12.73;;;;;;;16.12;84.30;99522.13;5052158;28;20214;-77
2021/08/01 06:01:53;;;;;;;11.87;10.90;;;;;;;16.22;84.07;99527.72;5051588;28;20278;-76
2021/08/01 06:04:20;;;;;;;12.00;11.10;;;;;;;16.32;83.82;99542.03;5052152;28;20203;-77
2021/08/01 06:06:46;;;;;;;12.17;11.17;;;;;;;16.29;83.96;99529.03;5051985;28;20571;-77
2021/08/01 06:09:14;;;;;;;12.57;11.47;;;;;;;16.22;84.53;99520.66;5052197;28;20259;-76
2021/08/01 06:11:40;;;;;;;12.27;11.03;;;;;;;16.29;84.19;99529.03;5044920;28;20252;-77
2021/08/01 06:14:07;;;;;;;11.63;10.83;;;;;;;16.36;84.19;99534.81;5050942;28;20624;-77
2021/08/01 06:16:34;;;;;;;12.83;11.73;;;;;;;16.21;84.96;99520.72;5051618;28;20613;-77
2021/08/01 06:19:01;;;;;;;11.50;10.67;;;;;;;16.30;84.40;99527.28;5051933;28;20210;-77
2021/08/01 06:21:29;;;;;;;12.37;11.27;;;;;;;16.36;84.45;99529.56;5051944;28;20260;-77
2021/08/01 06:23:56;;;;;;;11.37;10.63;;;;;;;16.30;85.05;99507.03;5051064;28;20230;-77
2021/08/01 06:26:24;;;;;;;10.87;10.10;;;;;;;16.44;84.89;99516.78;5051797;28;20284;-77
2021/08/01 06:28:52;;;;;;;11.97;11.07;;;;;;;16.58;84.06;99558.13;5051859;28;20261;-76
2021/08/01 06:31:18;;;;;;;12.07;11.10;;;;;;;16.43;83.37;99581.78;5051539;28;20260;-76
2021/08/01 06:33:45;;;;;;;11.53;10.63;;;;;;;16.57;83.80;99556.41;5051155;28;20202;-76
2021/08/01 06:36:13;;;;;;;12.07;11.10;;;;;;;16.51;83.74;99565.56;5051870;28;20205;-77
2021/08/01 06:38:41;;;;;;;12.83;11.83;;;;;;;16.48;84.07;99563.94;5051964;28;20202;-77
2021/08/01 06:41:08;;;;;;;12.67;11.50;;;;;;;16.42;84.29;99555.53;5048012;28;20678;-77
2021/08/01 06:43:36;;;;;;;12.53;11.43;;;;;;;16.51;84.35;99544.47;5047505;28;20591;-77
2021/08/01 06:46:03;;;;;;;11.80;10.97;;;;;;;16.60;83.81;99562.38;5051586;28;20211;-77
2021/08/01 06:48:29;;;;;;;12.93;11.77;;;;;;;16.43;84.41;99550.19;5051588;28;20210;-77
2021/08/01 06:50:56;;;;;;;12.77;11.67;;;;;;;16.44;84.52;99549.22;5051776;28;20215;-77
2021/08/01 06:53:23;;;;;;;14.70;11.63;;;;;;;16.56;84.16;99555.59;5050883;28;20279;-77
2021/08/01 06:55:49;;;;;;;12.33;11.33;;;;;;;16.59;83.96;99560.69;5049970;28;20215;-77
2021/08/01 06:58:18;;;;;;;12.30;11.30;;;;;;;16.62;83.83;99571.03;5051308;28;20591;-77
2021/08/01 07:00:46;;;;;;;13.13;12.10;;;;;;;16.61;83.45;99584.28;5051537;28;20214;-77
2021/08/01 07:03:13;;;;;;;11.70;10.73;;;;;;;16.71;84.03;99563.53;5054601;28;20227;-77
2021/08/01 07:05:39;;;;;;;14.03;12.83;;;;;;;16.81;83.52;99596.34;5055800;28;20211;-77
2021/08/01 07:08:06;;;;;;;12.47;11.47;;;;;;;16.91;82.77;99613.34;5055212;28;20640;-77
2021/08/01 07:10:32;;;;;;;12.27;11.47;;;;;;;16.80;82.61;99627.09;5055522;28;20253;-77
2021/08/01 07:13:03;;;;;;;11.33;10.53;;;;;;;16.82;82.67;99619.13;5048308;28;20244;-79
2021/08/01 07:15:29;;;;;;;11.40;10.50;;;;;;;16.88;82.32;99634.59;5060984;28;20237;-77
2021/08/01 07:17:58;;;;;;;12.00;11.10;;;;;;;16.71;82.40;99634.69;5058810;28;20255;-77
2021/08/01 07:20:25;;;;;;;10.87;10.07;;;;;;;16.77;82.98;99619.38;5054440;28;20723;-78
2021/08/01 07:22:52;;;;;;;12.57;11.63;;;;;;;16.71;83.05;99611.84;5046199;28;20270;-77
2021/08/01 07:25:20;;;;;;;11.90;10.90;;;;;;;16.73;82.57;99617.88;5047578;28;20207;-77
2021/08/01 07:27:46;;;;;;;13.23;12.13;;;;;;;16.83;82.22;99639.31;5045601;28;20232;-77
2021/08/01 07:30:14;;;;;;;10.77;9.97;;;;;;;16.87;81.92;99654.00;5043868;28;20608;-78
2021/08/01 07:32:40;;;;;;;13.00;11.90;;;;;;;16.81;81.31;99680.69;5046325;28;20249;-78
2021/08/01 07:35:09;;;;;;;12.30;11.40;;;;;;;16.86;80.99;99686.56;5045410;28;20204;-77
2021/08/01 07:37:35;;;;;;;12.27;11.37;;;;;;;16.96;81.63;99669.28;5044100;28;20244;-78
2021/08/01 07:40:03;;;;;;;12.27;11.47;;;;;;;16.98;80.60;99690.28;5046761;28;20245;-78
2021/08/01 07:42:29;;;;;;;11.33;10.53;;;;;;;17.13;80.69;99685.91;5048857;28;20276;-78
2021/08/01 07:45:01;;;;;;;11.90;11.00;;;;;;;17.30;80.90;99679.63;5044338;28;20204;-78
2021/08/01 07:47:27;;;;;;;12.67;11.77;;;;;;;17.39;79.67;99730.06;5048421;28;20243;-78
2021/08/01 07:49:53;;;;;;;11.13;10.33;;;;;;;17.57;78.89;99741.34;5048742;28;20205;-78
2021/08/01 07:52:21;;;;;;;11.47;10.50;;;;;;;17.58;76.77;99829.25;5047521;28;20216;-78
2021/08/01 07:54:48;;;;;;;11.57;10.67;;;;;;;17.47;77.17;99819.34;5043195;28;20201;-78
2021/08/01 07:57:25;;;;;;;11.40;10.33;;;;;;;17.60;78.35;99778.13;5048999;28;20226;-78
2021/08/01 07:59:52;;;;;;;11.40;10.60;;;;;;;17.72;77.10;99808.22;5048534;28;20627;-79
2021/08/01 08:02:18;;;;;;;11.63;10.63;;;;;;;17.77;76.16;99848.38;5047058;28;20752;-78
2021/08/01 08:04:45;;;;;;;10.83;10.03;;;;;;;17.66;75.90;99866.66;5051489;28;20204;-77
2021/08/01 08:07:11;;;;;;;10.10;9.30;;;;;;;17.71;75.41;99861.94;5042238;28;20618;-77
2021/08/01 08:09:39;;;;;;;10.77;9.93;;;;;;;17.74;75.33;99868.81;5040602;28;20606;-77
2021/08/01 08:12:06;;;;;;;10.33;9.53;;;;;;;17.85;75.07;99885.78;5049100;28;21049;-78
2021/08/01 08:14:32;;;;;;;9.70;8.87;;;;;;;17.90;74.05;99914.56;5048092;28;20200;-78
2021/08/01 08:17:00;;;;;;;7.90;7.20;;;;;;;18.02;73.56;99942.06;5057973;28;20207;-78
2021/08/01 08:19:27;;;;;;;7.47;6.77;;;;;;;17.97;73.28;99958.16;5059257;28;20201;-78
2021/08/01 08:21:54;;;;;;;8.80;8.10;;;;;;;18.09;73.83;99926.69;5057705;28;20231;-79
2021/08/01 08:24:20;;;;;;;8.67;7.97;;;;;;;18.18;73.34;99944.66;5057666;28;20207;-78
2021/08/01 08:26:48;;;;;;;7.60;7.10;;;;;;;18.16;72.27;99987.00;5058340;28;20222;-79
2021/08/01 08:29:15;;;;;;;7.50;6.90;;;;;;;18.13;71.80;100013.59;5060067;28;20208;-78
2021/08/01 08:31:44;;;;;;;7.40;6.90;;;;;;;18.10;72.56;99979.44;5058015;28;20729;-76
2021/08/01 08:34:10;;;;;;;6.97;6.47;;;;;;;18.19;72.00;99997.38;5059980;28;20262;-78
2021/08/01 08:36:37;;;;;;;6.23;5.83;;;;;;;18.20;70.49;100065.16;5060254;28;20212;-78
2021/08/01 08:39:03;;;;;;;7.23;6.73;;;;;;;18.12;70.62;100067.38;5060109;28;20554;-78
2021/08/01 08:41:33;;;;;;;6.77;6.33;;;;;;;18.19;70.98;100036.16;5057936;28;20744;-78
2021/08/01 08:44:01;;;;;;;7.70;7.20;;;;;;;18.19;71.64;100022.97;5050463;28;20619;-78
2021/08/01 08:46:28;;;;;;;7.63;7.03;;;;;;;18.21;71.29;100024.56;5058660;28;20204;-78
2021/08/01 08:48:56;;;;;;;7.00;6.47;;;;;;;18.12;70.74;100046.25;5058328;28;20682;-78
2021/08/01 08:51:26;;;;;;;6.70;6.10;;;;;;;18.32;70.97;100033.69;5053567;28;20213;-77
2021/08/01 08:53:54;;;;;;;6.57;6.00;;;;;;;18.51;71.15;100005.22;5059841;28;20219;-79
2021/08/01 08:56:22;;;;;;;7.43;6.93;;;;;;;18.51;69.56;100079.22;5063911;28;20629;-80
2021/08/01 08:58:52;;;;;;;7.37;6.83;;;;;;;18.63;70.60;100032.72;5065699;28;20572;-80
2021/08/01 09:01:20;;;;;;;8.30;7.70;;;;;;;18.72;69.77;100058.63;5065289;28;20272;-78
2021/08/01 09:03:48;;;;;;;7.57;7.00;;;;;;;18.72;69.96;100049.88;5052515;28;20273;-77
2021/08/01 09:06:14;;;;;;;7.10;6.60;;;;;;;18.73;69.01;100101.78;5053145;28;20215;-77
2021/08/01 09:08:41;;;;;;;8.17;7.57;;;;;;;18.73;68.86;100120.28;5052821;28;20597;-77
2021/08/01 09:11:07;;;;;;;7.50;6.97;;;;;;;18.91;68.60;100108.69;5046713;28;20754;-77
2021/08/01 09:13:44;;;;;;;7.10;6.60;;;;;;;19.10;68.24;100121.66;5052254;28;20227;-77
2021/08/01 09:16:11;;;;;;;7.13;6.63;;;;;;;18.96;67.12;100163.97;5052976;28;20215;-77
2021/08/01 09:18:39;;;;;;;6.53;6.10;;;;;;;19.10;67.36;100153.41;5052779;28;20209;-77
2021/08/01 09:21:06;;;;;;;6.37;5.97;;;;;;;19.04;67.21;100164.38;5053267;28;20205;-77
2021/08/01 09:23:34;;;;;;;6.10;5.70;;;;;;;19.13;67.11;100160.34;5051691;28;20752;-77
2021/08/01 09:26:02;;;;;;;6.90;6.40;;;;;;;19.19;66.46;100203.16;5052142;28;20266;-77
2021/08/01 09:28:29;;;;;;;5.70;5.30;;;;;;;19.19;65.76;100211.09;5052871;28;20232;-77
2021/08/01 09:30:57;;;;;;;6.00;5.50;;;;;;;19.25;65.95;100205.44;5052709;28;20218;-77
2021/08/01 09:33:35;;;;;;;5.50;5.10;;;;;;;19.18;65.84;100221.75;5052210;28;20236;-77
2021/08/01 09:36:11;;;;;;;5.07;4.77;;;;;;;19.17;65.37;100228.84;5051643;28;20204;-77
2021/08/01 09:38:49;;;;;;;4.60;4.30;;;;;;;19.13;65.63;100237.06;5051725;28;20274;-76
2021/08/01 09:41:18;;;;;;;5.23;3.87;;;;;;;19.08;64.26;100282.28;5046238;28;20273;-76
2021/08/01 09:43:46;;;;;;;4.47;4.17;;;;;;;19.19;64.61;100268.47;5051473;28;20208;-76
2021/08/01 09:46:13;;;;;;;3.97;3.67;;;;;;;19.32;64.14;100280.03;5052696;28;20212;-76
2021/08/01 09:48:39;;;;;;;3.40;3.20;;;;;;;19.41;63.30;100321.84;5052141;28;20294;-77
2021/08/01 09:51:07;;;;;;;3.10;2.97;;;;;;;19.47;63.39;100323.31;5054608;28;20258;-77
2021/08/01 09:53:40;;;;;;;3.47;3.27;;;;;;;19.54;63.27;100314.03;5049849;28;20232;-75
2021/08/01 09:56:15;;;;;;;3.60;3.40;;;;;;;19.35;63.17;100322.22;5051691;28;20291;-76
2021/08/01 09:58:42;;;;;;;3.73;3.53;;;;;;;19.45;63.42;100296.91;5052827;28;20199;-77
2021/08/01 10:01:10;;;;;;;4.53;4.13;;;;;;;19.52;63.10;100310.63;5052948;28;20212;-76
2021/08/01 10:03:38;;;;;;;3.33;3.13;;;;;;;19.44;61.96;100358.75;5051900;28;20577;-77
2021/08/01 10:06:08;;;;;;;3.37;2.80;;;;;;;19.52;61.83;100371.53;5046499;28;20208;-78
2021/08/01 10:08:40;;;;;;;3.57;3.27;;;;;;;19.55;61.42;100379.31;5055444;28;20227;-78
2021/08/01 10:11:14;;;;;;;2.70;2.50;;;;;;;19.49;60.96;100405.28;5049309;28;20295;-78
2021/08/01 10:13:42;;;;;;;2.50;2.30;;;;;;;19.65;61.23;100374.34;5054825;28;20634;-77
2021/08/01 10:16:09;;;;;;;3.37;3.17;;;;;;;19.89;60.14;100398.56;5054781;28;20213;-77
2021/08/01 10:18:37;;;;;;;3.10;2.90;;;;;;;19.97;60.45;100408.72;5051376;28;20674;-77
2021/08/01 10:21:04;;;;;;;2.97;2.77;;;;;;;20.08;60.72;100392.19;5053246;28;20226;-75
2021/08/01 10:23:35;;;;;;;2.70;2.60;;;;;;;19.92;60.24;100432.84;5052016;28;20234;-77
2021/08/01 10:26:05;;;;;;;3.10;2.90;;;;;;;19.60;60.62;100403.75;5052164;28;20230;-77
2021/08/01 10:28:33;;;;;;;2.97;2.77;;;;;;;19.40;60.89;100382.81;5054505;28;20231;-78
2021/08/01 10:31:03;;;;;;;2.97;2.77;;;;;;;19.55;60.93;100367.88;5055065;28;20204;-79
2021/08/01 10:33:36;;;;;;;3.40;3.20;;;;;;;19.56;61.13;100374.84;5050795;28;20324;-77
2021/08/01 10:36:04;;;;;;;3.30;3.00;;;;;;;19.49;60.69;100373.53;5051206;28;20308;-77
2021/08/01 10:38:35;;;;;;;3.20;3.00;;;;;;;19.70;60.50;100384.66;5055935;28;20211;-77
2021/08/01 10:41:06;;;;;;;3.30;3.10;;;;;;;19.74;60.10;100415.34;5049806;28;20212;-77
2021/08/01 10:43:35;;;;;;;3.27;3.07;;;;;;;19.71;58.34;100444.66;5053993;28;20219;-77
2021/08/01 10:46:01;;;;;;;2.97;2.77;;;;;;;19.74;60.13;100407.41;5055630;28;20612;-76
2021/08/01 10:48:30;;;;;;;3.10;2.90;;;;;;;19.65;60.69;100371.69;5055869;28;20235;-76
2021/08/01 10:50:58;;;;;;;3.27;2.50;;;;;;;19.73;61.40;100342.16;5055783;28;20258;-76
2021/08/01 10:53:26;;;;;;;3.53;3.33;;;;;;;19.96;61.79;100307.19;5054947;28;20231;-76
2021/08/01 10:55:54;;;;;;;2.97;2.67;;;;;;;20.14;60.55;100362.69;5055813;28;20215;-77
2021/08/01 10:58:22;;;;;;;2.33;2.23;;;;;;;20.34;60.89;100346.41;5058493;28;20206;-78
2021/08/01 11:01:01;;;;;;;3.50;3.30;;;;;;;20.37;58.44;100431.06;5055779;28;20216;-76
2021/08/01 11:03:28;;;;;;;3.43;3.10;;;;;;;20.56;59.50;100380.44;5054677;28;20802;-75
2021/08/01 11:05:55;;;;;;;4.17;2.90;;;;;;;20.85;58.25;100428.19;5055426;28;20292;-75
2021/08/01 11:08:22;;;;;;;2.77;2.57;;;;;;;20.85;56.74;100510.44;5055856;28;20228;-76
2021/08/01 11:11:13;;;;;;;3.00;2.80;;;;;;;20.51;57.20;100491.22;5049255;28;20224;-75
2021/08/01 11:13:45;;;;;;;2.80;2.70;;;;;;;20.33;57.29;100487.84;5054781;28;20238;-75
2021/08/01 11:16:15;;;;;;;2.40;2.30;;;;;;;20.23;55.94;100545.88;5055346;28;20201;-76
2021/08/01 11:18:43;;;;;;;4.53;2.50;;;;;;;20.37;55.86;100553.03;5055602;28;20201;-77
2021/08/01 11:21:11;;;;;;;2.60;2.40;;;;;;;20.38;55.62;100568.00;5054927;28;20732;-77
2021/08/01 11:24:07;;;;;;;2.57;2.47;;;;;;;20.52;55.83;100529.22;5054531;28;20295;-76
2021/08/01 11:26:35;;;;;;;2.30;2.10;;;;;;;20.75;56.63;100520.78;5054913;28;20428;-77
2021/08/01 11:29:08;;;;;;;2.60;2.30;;;;;;;21.09;54.21;100613.41;5055022;28;20258;-77
2021/08/01 11:31:36;;;;;;;1.70;1.60;;;;;;;21.28;52.64;100688.34;5055078;28;20243;-77